Time;durP1;ratioP1;P1;durP2;ratioP2;P2;SDS_P1;SDS_P2;PMS_P1;PMS_P2;Temp;Humidity;BMP_temperature;BMP_pressure;BME280_temperature;BME280_humidity;BME280_pressure;Samples;Min_cycle;Max_cycle;Signal;HPM_P1;HPM_P2
2022/12/29 00:01:36;;;;;;;13.72;7.65;;;;;;;2.05;69.69;99951.84;1831728;77;20991;-40
2022/12/29 00:04:03;;;;;;;14.38;8.65;;;;;;;2.06;69.44;99945.96;1828019;78;21230;-40
2022/12/29 00:06:31;;;;;;;15.95;8.03;;;;;;;2.08;69.33;99952.59;1825679;78;21881;-40
2022/12/29 00:08:59;;;;;;;14.83;8.08;;;;;;;2.08;69.13;99955.27;1825654;78;20989;-40
2022/12/29 00:11:27;;;;;;;13.32;8.10;;;;;;;2.09;69.15;99946.17;1825460;78;21468;-40
2022/12/29 00:16:42;;;;;;;15.80;8.05;;;;;;;2.11;68.61;99946.69;1825587;78;20958;-40
2022/12/29 00:36:09;;;;;;;14.40;7.92;;;;;;;2.17;67.20;99937.52;1825771;78;21472;-40
2022/12/29 00:44:10;;;;;;;14.30;7.90;;;;;;;2.17;66.75;99925.48;1825938;78;21173;-40
2022/12/29 00:46:38;;;;;;;12.50;7.12;;;;;;;2.15;66.83;99935.66;1825645;78;21017;-40
2022/12/29 00:51:53;;;;;;;13.50;7.95;;;;;;;2.11;66.89;99914.59;1825753;78;20918;-40
2022/12/29 00:54:20;;;;;;;14.47;7.03;;;;;;;2.10;66.75;99922.90;1826146;78;21076;-40
2022/12/29 00:56:51;;;;;;;12.55;7.95;;;;;;;2.09;66.84;99916.75;1825610;78;21124;-40
2022/12/29 00:59:20;;;;;;;11.75;7.37;;;;;;;2.09;66.71;99923.98;1825836;78;20993;-40
2022/12/29 01:01:49;;;;;;;11.78;7.17;;;;;;;2.07;66.77;99926.96;1825522;78;20950;-40
2022/12/29 01:04:15;;;;;;;10.43;6.92;;;;;;;2.06;66.68;99921.35;1825454;77;20997;-40
2022/12/29 01:06:44;;;;;;;11.55;7.42;;;;;;;2.04;66.72;99918.16;1825508;78;21561;-40
2022/12/29 01:11:56;;;;;;;10.90;6.72;;;;;;;2.00;66.79;99915.02;1825588;78;20943;-40
2022/12/29 01:14:23;;;;;;;14.40;7.20;;;;;;;1.97;66.74;99912.94;1825799;78;21491;-39
2022/12/29 01:16:50;;;;;;;10.90;6.95;;;;;;;1.96;66.75;99914.81;1825498;78;21579;-39
2022/12/29 01:19:18;;;;;;;13.38;6.67;;;;;;;1.93;66.71;99904.70;1825480;78;21543;-40
2022/12/29 01:21:46;;;;;;;11.80;6.70;;;;;;;1.92;66.61;99896.42;1825653;78;21132;-40
2022/12/29 01:24:16;;;;;;;11.68;6.90;;;;;;;1.90;66.58;99892.43;1825612;78;20962;-40
2022/12/29 01:26:43;;;;;;;14.38;6.87;;;;;;;1.86;66.40;99888.21;1824342;78;20990;-40
2022/12/29 01:29:09;;;;;;;14.20;6.97;;;;;;;1.80;66.50;99873.86;1825710;78;21015;-40
2022/12/29 01:31:36;;;;;;;10.35;6.53;;;;;;;1.75;66.61;99870.72;1825721;78;21456;-40
2022/12/29 01:34:03;;;;;;;14.07;7.33;;;;;;;1.75;66.69;99868.84;1825601;78;21141;-40
2022/12/29 01:36:30;;;;;;;13.22;6.22;;;;;;;1.72;66.72;99867.30;1825661;78;21225;-40
2022/12/29 01:38:58;;;;;;;11.83;6.53;;;;;;;1.70;66.64;99866.77;1825636;78;21543;-40
2022/12/29 01:41:26;;;;;;;11.43;7.10;;;;;;;1.68;66.75;99874.30;1825881;78;21015;-40
2022/12/29 01:43:56;;;;;;;12.53;6.28;;;;;;;1.67;66.76;99869.49;1825727;78;21539;-40
2022/12/29 01:46:42;;;;;;;9.58;6.28;;;;;;;1.65;66.88;99870.31;1825817;78;21905;-40
2022/12/29 01:49:22;;;;;;;10.40;6.28;;;;;;;1.65;66.78;99878.33;1825508;78;20989;-39
2022/12/29 01:51:53;;;;;;;10.68;6.00;;;;;;;1.60;66.78;99872.25;1825338;78;21073;-40
2022/12/29 01:54:33;;;;;;;9.53;6.05;;;;;;;1.59;66.86;99868.02;1824785;78;20958;-40
2022/12/29 01:57:03;;;;;;;10.50;6.12;;;;;;;1.56;66.99;99865.36;1809861;78;21020;-40
2022/12/29 01:59:35;;;;;;;9.23;5.58;;;;;;;1.55;66.99;99862.42;1825701;78;21095;-40
2022/12/29 02:02:02;;;;;;;9.90;5.90;;;;;;;1.53;67.04;99862.48;1825586;78;20989;-40
2022/12/29 02:04:30;;;;;;;9.53;5.72;;;;;;;1.56;66.98;99857.88;1828339;78;21086;-40
2022/12/29 02:07:01;;;;;;;14.07;6.80;;;;;;;1.54;67.00;99859.52;1831905;78;20995;-40
2022/12/29 02:09:28;;;;;;;12.20;6.40;;;;;;;1.51;67.17;99848.59;1831827;78;21850;-40
2022/12/29 02:11:56;;;;;;;11.05;6.22;;;;;;;1.52;67.12;99848.86;1831823;78;21129;-40
2022/12/29 02:14:24;;;;;;;10.93;6.17;;;;;;;1.52;67.07;99844.31;1831742;77;21499;-40
2022/12/29 02:17:15;;;;;;;9.63;6.03;;;;;;;1.54;67.04;99845.37;1831630;78;20987;-40
2022/12/29 02:20:23;;;;;;;11.73;6.50;;;;;;;1.53;67.08;99846.44;1831873;78;20956;-40
2022/12/29 02:23:46;;;;;;;10.85;6.22;;;;;;;1.52;67.12;99842.17;1831688;78;20985;-40
2022/12/29 02:26:35;;;;;;;9.75;6.60;;;;;;;1.48;67.20;99842.50;1832015;77;21214;-40
2022/12/29 02:29:31;;;;;;;10.80;6.10;;;;;;;1.43;67.33;99835.89;1832280;77;20989;-40
2022/12/29 02:32:39;;;;;;;10.18;5.67;;;;;;;1.41;67.50;99835.37;1831390;77;21259;-41
2022/12/29 02:35:52;;;;;;;9.78;6.08;;;;;;;1.40;67.62;99839.14;1831851;78;21035;-40
2022/12/29 02:38:34;;;;;;;11.10;6.22;;;;;;;1.34;67.73;99830.39;1769370;81;21015;-41
2022/12/29 02:41:18;;;;;;;10.40;6.03;;;;;;;1.34;67.75;99827.73;1769394;81;21231;-40
2022/12/29 02:43:53;;;;;;;9.23;5.53;;;;;;;1.33;67.74;99817.31;1741459;81;20972;-40
2022/12/29 02:46:37;;;;;;;11.95;5.95;;;;;;;1.34;67.84;99817.04;1831743;78;20988;-40
2022/12/29 02:49:20;;;;;;;12.43;6.30;;;;;;;1.33;67.81;99807.97;1831773;78;21024;-40
2022/12/29 02:52:04;;;;;;;10.75;5.58;;;;;;;1.35;67.74;99801.27;1831758;77;21051;-41
2022/12/29 02:54:43;;;;;;;12.78;5.55;;;;;;;1.32;67.68;99804.50;1831687;78;21074;-41
2022/12/29 02:57:25;;;;;;;9.83;6.03;;;;;;;1.33;67.54;99803.96;1817512;78;21506;-41
2022/12/29 02:59:56;;;;;;;10.68;5.72;;;;;;;1.29;67.52;99808.55;1831810;78;20909;-40
2022/12/29 03:02:53;;;;;;;10.53;5.37;;;;;;;1.29;67.56;99814.44;1831748;77;20973;-41
2022/12/29 03:05:59;;;;;;;9.53;5.30;;;;;;;1.26;67.40;99819.80;1827926;78;21495;-41
2022/12/29 03:08:46;;;;;;;8.03;5.30;;;;;;;1.27;67.22;99809.38;1825366;78;21239;-40
2022/12/29 03:17:01;;;;;;;11.10;5.55;;;;;;;1.26;67.16;99794.42;1789302;80;20909;-41
2022/12/29 03:19:36;;;;;;;9.05;5.25;;;;;;;1.22;67.25;99796.08;1789412;80;21536;-41
2022/12/29 03:25:10;;;;;;;9.18;5.28;;;;;;;1.25;67.22;99788.05;1787700;80;21054;-40
2022/12/29 03:27:42;;;;;;;10.10;5.37;;;;;;;1.24;67.26;99785.92;1789220;80;20987;-41
2022/12/29 03:30:10;;;;;;;9.08;5.50;;;;;;;1.24;67.26;99795.80;1789305;80;20951;-41
2022/12/29 03:32:48;;;;;;;9.15;5.22;;;;;;;1.25;67.22;99792.05;1758807;80;21528;-40
2022/12/29 03:35:20;;;;;;;10.58;5.25;;;;;;;1.23;67.28;99792.88;1789319;80;21627;-41
2022/12/29 03:38:01;;;;;;;9.10;5.55;;;;;;;1.21;67.41;99792.38;1789395;80;21529;-41
2022/12/29 03:40:29;;;;;;;8.70;5.58;;;;;;;1.20;67.47;99787.58;1780215;80;20909;-41
2022/12/29 03:42:56;;;;;;;10.00;5.33;;;;;;;1.19;67.43;99785.98;1789159;80;21019;-41
2022/12/29 03:45:23;;;;;;;7.58;5.42;;;;;;;1.17;67.54;99779.33;1789107;80;20948;-41
2022/12/29 03:47:51;;;;;;;9.10;5.65;;;;;;;1.18;67.55;99790.27;1789349;80;21123;-41
2022/12/29 03:50:18;;;;;;;9.68;5.50;;;;;;;1.18;67.63;99784.92;1758867;80;21465;-41
2022/12/29 03:52:44;;;;;;;8.40;5.35;;;;;;;1.18;67.64;99783.05;1789318;80;21022;-41
2022/12/29 03:55:11;;;;;;;9.20;5.30;;;;;;;1.19;67.73;99775.30;1789504;80;21024;-41
2022/12/29 03:57:40;;;;;;;9.50;5.22;;;;;;;1.20;67.64;99773.43;1789517;80;21000;-41
2022/12/29 04:00:10;;;;;;;11.63;5.35;;;;;;;1.19;67.66;99775.30;1789189;80;21290;-40
2022/12/29 04:02:44;;;;;;;9.53;5.45;;;;;;;1.23;67.51;99772.84;1789223;80;21000;-40
2022/12/29 04:05:13;;;;;;;8.65;5.40;;;;;;;1.22;67.56;99776.05;1788612;79;21000;-41
2022/12/29 04:07:40;;;;;;;9.05;5.00;;;;;;;1.27;67.37;99775.98;1789198;80;21011;-41
2022/12/29 04:10:09;;;;;;;9.75;5.45;;;;;;;1.28;67.30;99777.58;1789112;80;20968;-40
2022/12/29 04:12:35;;;;;;;9.60;5.87;;;;;;;1.25;67.28;99776.03;1789008;80;21105;-41
2022/12/29 04:15:04;;;;;;;9.35;5.42;;;;;;;1.25;67.32;99774.16;1788893;80;20940;-41
2022/12/29 04:17:31;;;;;;;11.95;5.90;;;;;;;1.22;67.39;99780.06;1789216;80;21063;-41
2022/12/29 04:20:59;;;;;;;10.20;5.62;;;;;;;1.22;67.37;99782.73;1789323;80;21509;-41
2022/12/29 04:22:26;;;;;;;7.80;5.15;;;;;;;1.23;67.31;99782.98;1785083;80;21051;-41
2022/12/29 04:24:53;;;;;;;10.75;5.92;;;;;;;1.21;67.38;99775.02;1758443;80;23149;-41
2022/12/29 04:27:21;;;;;;;8.30;5.30;;;;;;;1.20;67.42;99778.23;1789061;80;20992;-41
2022/12/29 04:29:55;;;;;;;10.23;5.55;;;;;;;1.21;67.47;99770.45;1785951;80;20923;-41
2022/12/29 04:32:26;;;;;;;9.53;5.37;;;;;;;1.20;67.51;99774.23;1765421;80;21004;-40
2022/12/29 04:34:54;;;;;;;10.50;5.58;;;;;;;1.21;67.45;99776.36;1789326;80;21004;-41
2022/12/29 04:37:21;;;;;;;9.90;5.87;;;;;;;1.18;67.54;99787.05;1789311;80;21329;-41
2022/12/29 04:39:48;;;;;;;10.68;6.12;;;;;;;1.16;67.55;99780.43;1789217;80;21461;-41
2022/12/29 04:42:15;;;;;;;11.03;5.95;;;;;;;1.12;67.69;99781.52;1789216;80;21006;-41
2022/12/29 04:44:43;;;;;;;10.13;5.70;;;;;;;1.09;67.84;99782.64;1788954;80;21622;-40
2022/12/29 04:47:14;;;;;;;8.45;5.15;;;;;;;1.06;67.91;99772.02;1788632;80;21251;-41
2022/12/29 04:49:43;;;;;;;9.85;5.72;;;;;;;1.05;68.07;99777.63;1787239;80;23170;-41
2022/12/29 04:52:11;;;;;;;11.60;6.08;;;;;;;1.06;68.01;99770.67;1785646;80;21030;-40
2022/12/29 04:54:39;;;;;;;11.57;5.90;;;;;;;1.07;68.01;99773.58;1789105;80;20925;-41
2022/12/29 04:57:09;;;;;;;9.88;5.67;;;;;;;1.07;67.98;99769.56;1788819;80;21490;-41
2022/12/29 04:59:38;;;;;;;11.18;6.22;;;;;;;1.05;68.03;99773.08;1789282;80;21066;-41
2022/12/29 05:02:05;;;;;;;8.68;5.33;;;;;;;1.07;68.03;99767.44;1789060;80;21228;-41
2022/12/29 05:04:35;;;;;;;12.60;6.45;;;;;;;1.06;68.06;99765.34;1789363;80;21489;-41
2022/12/29 05:07:02;;;;;;;9.58;5.65;;;;;;;1.03;68.15;99762.42;1766038;80;20951;-40
2022/12/29 05:09:29;;;;;;;10.63;6.15;;;;;;;1.00;68.24;99756.33;1795097;80;21007;-41
2022/12/29 05:11:57;;;;;;;11.57;6.25;;;;;;;1.03;68.22;99763.22;1794985;80;21012;-41
2022/12/29 05:14:25;;;;;;;10.40;5.97;;;;;;;1.01;68.40;99760.59;1794901;80;21502;-41
2022/12/29 05:16:53;;;;;;;10.43;6.00;;;;;;;1.02;68.47;99759.48;1795080;80;20924;-41
2022/12/29 05:19:20;;;;;;;10.23;6.22;;;;;;;1.03;68.48;99762.42;1794978;80;21300;-41
2022/12/29 05:21:47;;;;;;;12.85;6.17;;;;;;;1.02;68.56;99761.62;1794920;80;20923;-41
2022/12/29 05:24:15;;;;;;;9.70;6.17;;;;;;;1.02;68.56;99754.16;1795289;80;20990;-40
2022/12/29 05:26:42;;;;;;;11.70;7.03;;;;;;;0.99;68.73;99756.87;1795243;80;21131;-41
2022/12/29 05:29:12;;;;;;;9.08;6.20;;;;;;;0.97;68.80;99754.24;1791910;80;21497;-41
2022/12/29 05:31:39;;;;;;;13.32;6.50;;;;;;;0.96;68.92;99760.66;1795415;80;21007;-41
2022/12/29 05:34:06;;;;;;;13.20;6.97;;;;;;;0.98;68.97;99760.61;1795452;80;21588;-40
2022/12/29 05:36:34;;;;;;;12.13;7.20;;;;;;;1.00;68.97;99757.67;1795394;80;21025;-41
2022/12/29 05:39:02;;;;;;;10.28;6.30;;;;;;;1.00;68.96;99747.78;1795316;80;20995;-40
2022/12/29 05:41:30;;;;;;;14.13;6.80;;;;;;;0.98;68.99;99751.27;1795332;80;20892;-41
2022/12/29 05:44:02;;;;;;;11.48;6.62;;;;;;;0.99;69.06;99747.52;1790514;80;20952;-41
2022/12/29 05:46:35;;;;;;;12.93;6.60;;;;;;;0.99;69.07;99754.20;1792502;80;21517;-41
2022/12/29 11:20:31;;;;;;;9.83;7.03;;;;;;;4.15;63.76;99632.00;1825773;77;22465;-39
2022/12/29 11:22:58;;;;;;;13.78;8.50;;;;;;;4.27;62.64;99636.22;1842205;76;20877;-39
2022/12/29 11:25:25;;;;;;;14.35;8.00;;;;;;;4.17;62.62;99639.97;1873628;76;21133;-39
2022/12/29 11:28:05;;;;;;;11.50;7.00;;;;;;;4.12;62.77;99643.34;1873497;76;21508;-39
2022/12/29 11:30:32;;;;;;;9.73;6.75;;;;;;;4.07;62.90;99651.52;1871540;76;20947;-39
2022/12/29 11:32:59;;;;;;;9.30;7.17;;;;;;;4.00;63.23;99653.87;1873607;76;21106;-39
2022/12/29 11:35:42;;;;;;;10.72;7.05;;;;;;;3.93;63.13;99656.44;1813389;76;20932;-39
2022/12/29 11:38:22;;;;;;;13.80;7.55;;;;;;;3.87;63.20;99660.91;1873717;76;21229;-39
2022/12/29 11:40:49;;;;;;;13.32;8.40;;;;;;;3.77;63.65;99661.97;1873612;76;20905;-40
2022/12/29 11:43:33;;;;;;;16.17;8.63;;;;;;;3.74;63.80;99667.92;1873519;76;20967;-39
2022/12/29 11:46:00;;;;;;;12.28;7.37;;;;;;;3.69;63.94;99672.06;1873376;76;20994;-39
2022/12/29 11:48:30;;;;;;;11.80;7.25;;;;;;;3.71;64.06;99669.89;1873567;76;21008;-40
2022/12/29 11:51:02;;;;;;;;;;;;;;;3.76;63.99;99667.08;1876403;76;21177;-40
2022/12/29 11:53:45;;;;;;;11.60;7.78;;;;;;;3.77;64.26;99668.67;1872416;76;20133;-40
2022/12/29 11:56:16;;;;;;;16.50;8.90;;;;;;;3.68;64.58;99663.02;1873515;76;20923;-39
2022/12/29 11:58:43;;;;;;;14.15;8.05;;;;;;;3.67;64.38;99668.92;1873508;76;21062;-40
2022/12/29 12:01:30;;;;;;;15.63;8.43;;;;;;;3.68;64.05;99668.38;1840223;76;20901;-40
2022/12/29 12:04:15;;;;;;;15.05;8.63;;;;;;;3.68;64.06;99663.02;1828757;76;21365;-40
2022/12/29 12:06:50;;;;;;;13.48;8.08;;;;;;;3.66;64.25;99656.61;1873329;76;20924;-40
2022/12/29 12:09:25;;;;;;;12.20;7.72;;;;;;;3.62;64.08;99663.69;1870866;76;20904;-40
2022/12/29 12:11:53;;;;;;;14.58;8.33;;;;;;;3.59;63.85;99661.59;1873264;76;20984;-40
2022/12/29 12:14:26;;;;;;;13.43;8.23;;;;;;;3.60;64.10;99665.86;1873469;76;21330;-40
2022/12/29 12:17:14;;;;;;;12.37;8.18;;;;;;;3.60;64.25;99664.52;1860920;76;21300;-40
2022/12/29 12:19:55;;;;;;;12.80;7.65;;;;;;;3.61;64.27;99664.77;1858509;76;21027;-40
2022/12/29 12:22:57;;;;;;;14.10;8.50;;;;;;;3.65;64.43;99655.02;1856304;77;21036;-40
2022/12/29 12:25:28;;;;;;;12.15;8.13;;;;;;;3.69;64.41;99642.58;1855155;77;21341;-40
2022/12/29 12:28:02;;;;;;;13.53;8.68;;;;;;;3.67;64.25;99628.70;1856412;77;20987;-40
2022/12/29 12:30:43;;;;;;;14.05;8.88;;;;;;;3.67;64.00;99628.70;1856345;77;21103;-40
2022/12/29 12:33:30;;;;;;;12.68;8.55;;;;;;;3.66;64.17;99628.45;1856355;77;21525;-40
2022/12/29 12:36:41;;;;;;;13.32;8.25;;;;;;;3.65;64.24;99622.05;1856385;77;20921;-39
2022/12/29 12:39:27;;;;;;;12.75;7.92;;;;;;;3.63;64.25;99612.96;1855497;77;21509;-40
2022/12/29 12:42:25;;;;;;;12.60;7.78;;;;;;;3.56;64.35;99615.84;1856416;77;20987;-39
2022/12/29 12:45:28;;;;;;;14.55;8.33;;;;;;;3.55;64.62;99623.09;1856102;77;22235;-39
2022/12/29 12:48:09;;;;;;;12.98;7.75;;;;;;;3.58;64.74;99618.48;1827450;78;21039;-40
2022/12/29 12:50:44;;;;;;;12.20;7.78;;;;;;;3.66;64.71;99616.39;1848480;77;20913;-40
2022/12/29 12:53:40;;;;;;;12.80;8.10;;;;;;;3.70;64.69;99617.35;1856088;77;20944;-40
2022/12/29 12:56:43;;;;;;;12.33;8.65;;;;;;;3.74;64.62;99618.31;1856171;77;21016;-40
2022/12/29 12:59:30;;;;;;;13.48;8.58;;;;;;;3.73;64.64;99622.09;1856435;77;21446;-40
2022/12/29 13:02:30;;;;;;;12.88;8.05;;;;;;;3.72;64.57;99631.26;1856261;77;21544;-40
2022/12/29 13:05:23;;;;;;;14.28;7.60;;;;;;;3.69;64.53;99641.23;1856451;77;20983;-40
2022/12/29 13:08:16;;;;;;;11.33;7.75;;;;;;;3.65;64.76;99652.33;1856211;77;20885;-40
2022/12/29 13:11:30;;;;;;;13.20;7.75;;;;;;;3.62;64.84;99655.64;1856272;77;21032;-40
2022/12/29 13:14:22;;;;;;;11.40;7.72;;;;;;;3.60;64.87;99650.33;1856337;77;22107;-40
2022/12/29 13:16:57;;;;;;;13.75;8.10;;;;;;;3.64;64.76;99649.41;1855039;77;20933;-40
2022/12/29 13:19:53;;;;;;;12.13;7.55;;;;;;;3.67;64.47;99636.75;1856668;76;21535;-40
2022/12/29 13:22:38;;;;;;;12.07;7.55;;;;;;;3.67;64.25;99634.61;1872690;76;20992;-40
2022/12/29 13:25:28;;;;;;;11.93;7.30;;;;;;;3.63;64.29;99626.37;1872830;76;21286;-41
2022/12/29 13:28:12;;;;;;;11.45;7.50;;;;;;;3.62;64.21;99642.23;1872689;76;21145;-41
2022/12/29 13:30:47;;;;;;;12.30;7.90;;;;;;;3.59;64.29;99635.33;1872354;76;20994;-41
2022/12/29 13:33:36;;;;;;;10.50;6.95;;;;;;;3.56;64.31;99638.09;1872771;76;21552;-41
2022/12/29 13:36:23;;;;;;;12.30;7.33;;;;;;;3.54;64.34;99642.95;1872976;76;20993;-41
2022/12/29 13:38:55;;;;;;;13.22;7.03;;;;;;;3.52;64.41;99641.69;1862455;76;20992;-41
2022/12/29 13:41:35;;;;;;;11.00;7.08;;;;;;;3.50;64.62;99643.33;1872298;76;21158;-41
2022/12/29 13:44:03;;;;;;;11.93;7.47;;;;;;;3.48;64.48;99642.86;1873232;76;21439;-41
2022/12/29 13:46:35;;;;;;;11.15;7.10;;;;;;;3.47;64.64;99646.62;1872978;76;21516;-41
2022/12/29 13:49:09;;;;;;;11.50;7.03;;;;;;;3.46;64.79;99643.15;1873169;76;20940;-41
2022/12/29 13:51:37;;;;;;;13.65;7.17;;;;;;;3.47;64.82;99637.25;1872856;76;20976;-40
2022/12/29 13:54:09;;;;;;;11.05;7.17;;;;;;;3.45;64.87;99636.75;1872921;76;22070;-41
2022/12/29 13:56:44;;;;;;;11.25;7.10;;;;;;;3.48;64.93;99626.77;1872602;76;20958;-41
2022/12/29 13:59:41;;;;;;;12.70;7.00;;;;;;;3.54;64.91;99628.20;1872784;76;21562;-41
2022/12/29 14:02:19;;;;;;;13.00;6.55;;;;;;;3.60;64.79;99632.90;1872851;76;20912;-41
2022/12/29 14:05:01;;;;;;;10.25;7.12;;;;;;;3.61;64.74;99624.56;1872844;76;20960;-41
2022/12/29 14:07:28;;;;;;;9.53;7.00;;;;;;;3.60;64.64;99613.59;1872807;76;21187;-41
2022/12/29 14:09:56;;;;;;;11.80;7.25;;;;;;;3.59;64.65;99623.27;1872768;76;20983;-41
2022/12/29 14:12:40;;;;;;;12.40;7.30;;;;;;;3.58;64.83;99634.56;1872880;76;20951;-41
2022/12/29 14:15:15;;;;;;;13.03;7.95;;;;;;;3.58;64.83;99636.45;1872904;76;20970;-41
2022/12/29 14:18:01;;;;;;;12.10;7.62;;;;;;;3.53;64.94;99634.69;1872915;76;21051;-41
2022/12/29 14:20:28;;;;;;;12.82;7.80;;;;;;;3.49;65.04;99635.83;1843789;76;21130;-41
2022/12/29 14:23:12;;;;;;;12.07;7.75;;;;;;;3.49;65.12;99634.48;1872720;76;20904;-41
2022/12/29 14:26:08;;;;;;;11.22;7.50;;;;;;;3.54;65.03;99631.44;1872611;76;20986;-41
2022/12/29 14:28:47;;;;;;;12.10;8.03;;;;;;;3.50;65.08;99626.70;1872972;76;20975;-41
2022/12/29 14:31:34;;;;;;;12.20;8.48;;;;;;;3.42;65.33;99623.42;1872748;76;20994;-41
2022/12/29 14:34:12;;;;;;;13.72;8.48;;;;;;;3.38;65.43;99620.32;1873110;76;21230;-41
2022/12/29 14:37:01;;;;;;;16.50;9.03;;;;;;;3.30;65.65;99629.07;1872638;76;21479;-41
2022/12/29 14:39:44;;;;;;;17.05;8.68;;;;;;;3.26;65.79;99628.89;1872854;76;20968;-41
2022/12/29 14:45:29;;;;;;;15.35;8.20;;;;;;;3.18;66.09;99623.48;1720821;78;21027;-41
2022/12/29 14:47:56;;;;;;;13.50;8.40;;;;;;;3.14;66.22;99615.81;1711736;81;21142;-40
2022/12/29 14:50:27;;;;;;;12.95;8.13;;;;;;;3.11;66.34;99615.06;1709708;83;21052;-40
2022/12/29 14:53:04;;;;;;;16.15;8.60;;;;;;;3.09;66.50;99622.08;1709520;83;20996;-41
2022/12/29 14:55:47;;;;;;;13.53;8.35;;;;;;;3.15;66.42;99620.08;1709820;83;20964;-41
2022/12/29 14:58:24;;;;;;;12.45;8.18;;;;;;;3.14;66.46;99619.28;1720497;82;21071;-41
2022/12/29 15:00:50;;;;;;;16.62;9.05;;;;;;;3.13;66.43;99627.07;1740007;82;21117;-40
2022/12/29 15:03:23;;;;;;;14.15;9.08;;;;;;;3.12;66.34;99627.36;1740366;82;21494;-41
2022/12/29 15:06:11;;;;;;;12.50;8.28;;;;;;;3.11;66.33;99624.44;1740172;82;21625;-41
2022/12/29 15:08:56;;;;;;;14.03;8.30;;;;;;;3.06;66.40;99624.80;1740445;82;21019;-41
2022/12/29 15:11:44;;;;;;;13.28;8.33;;;;;;;3.03;66.48;99624.08;1740458;82;20997;-40
2022/12/29 15:14:36;;;;;;;13.08;8.60;;;;;;;2.99;66.60;99624.45;1740287;82;23118;-40
2022/12/29 15:17:29;;;;;;;14.43;8.78;;;;;;;2.98;66.70;99622.86;1740407;82;21040;-41
2022/12/29 15:19:58;;;;;;;14.07;9.03;;;;;;;2.97;66.72;99625.28;1738821;82;21092;-40
2022/12/29 15:22:25;;;;;;;13.43;8.85;;;;;;;3.01;66.69;99628.94;1740729;82;21021;-41
2022/12/29 15:24:53;;;;;;;13.70;8.80;;;;;;;3.10;66.57;99626.89;1740226;82;21601;-41
2022/12/29 15:27:25;;;;;;;15.78;9.18;;;;;;;3.11;66.47;99615.06;1740487;82;21091;-41
2022/12/29 15:30:01;;;;;;;13.60;8.83;;;;;;;3.12;66.35;99619.33;1740027;82;20965;-41
2022/12/29 15:32:43;;;;;;;14.60;9.43;;;;;;;3.11;66.30;99620.41;1740498;82;20989;-41
2022/12/29 15:35:33;;;;;;;13.48;9.15;;;;;;;3.09;66.34;99613.25;1740042;82;21020;-41
2022/12/29 15:38:03;;;;;;;15.38;10.15;;;;;;;3.06;66.31;99614.63;1740171;82;21684;-41
2022/12/29 15:40:32;;;;;;;16.50;9.93;;;;;;;2.98;66.41;99611.34;1740040;82;21224;-41
2022/12/29 15:43:25;;;;;;;15.45;9.08;;;;;;;2.96;66.52;99614.32;1739982;82;21015;-41
2022/12/29 15:45:53;;;;;;;13.32;9.13;;;;;;;2.99;66.51;99631.14;1741698;82;21087;-41
2022/12/29 15:48:23;;;;;;;14.00;8.65;;;;;;;2.96;66.66;99626.91;1701067;82;20961;-41
2022/12/29 15:50:50;;;;;;;22.32;10.03;;;;;;;2.96;66.73;99623.69;1744850;82;21584;-41
2022/12/29 15:53:30;;;;;;;15.20;9.95;;;;;;;2.96;66.68;99616.20;1744882;82;23078;-41
2022/12/29 15:56:03;;;;;;;15.00;9.38;;;;;;;2.94;66.69;99616.52;1745173;81;21886;-41
2022/12/29 15:58:32;;;;;;;14.68;9.70;;;;;;;2.88;66.68;99613.70;1744001;82;21019;-41
2022/12/29 16:01:01;;;;;;;15.48;9.10;;;;;;;2.84;66.74;99616.75;1716179;82;21044;-41
2022/12/29 16:03:34;;;;;;;16.70;9.65;;;;;;;2.81;66.85;99613.89;1745466;82;21008;-41
2022/12/29 16:06:28;;;;;;;19.23;10.38;;;;;;;2.79;66.87;99622.22;1745090;82;21241;-41
2022/12/29 16:09:07;;;;;;;14.63;9.55;;;;;;;2.75;67.01;99617.77;1745067;81;21597;-41
2022/12/29 16:11:40;;;;;;;15.40;9.03;;;;;;;2.74;67.08;99613.50;1745248;81;21023;-41
2022/12/29 16:14:12;;;;;;;15.28;9.30;;;;;;;2.78;67.04;99611.80;1745355;82;20941;-41
2022/12/29 16:16:40;;;;;;;13.80;8.73;;;;;;;2.77;66.93;99612.34;1744914;81;21497;-41
2022/12/29 16:19:14;;;;;;;15.90;9.70;;;;;;;2.77;67.05;99617.70;1744924;81;21123;-41
2022/12/29 16:21:41;;;;;;;12.90;8.85;;;;;;;2.76;67.10;99606.73;1744987;82;21624;-41
2022/12/29 16:24:16;;;;;;;17.37;9.60;;;;;;;2.76;67.14;99607.31;1744924;82;20989;-41
2022/12/29 16:26:49;;;;;;;13.80;8.83;;;;;;;2.75;67.15;99610.53;1745002;82;21017;-41
2022/12/29 16:29:16;;;;;;;13.95;9.38;;;;;;;2.72;67.21;99609.78;1745188;82;20994;-41
2022/12/29 16:32:01;;;;;;;15.15;9.25;;;;;;;2.72;67.28;99611.11;1745165;82;21597;-41
2022/12/29 16:34:41;;;;;;;16.37;9.83;;;;;;;2.73;67.31;99607.34;1745091;82;20940;-41
2022/12/29 16:37:32;;;;;;;16.17;10.20;;;;;;;2.75;67.23;99610.53;1745008;82;21071;-41
2022/12/29 16:40:30;;;;;;;16.15;9.60;;;;;;;2.72;67.32;99608.44;1745429;82;21035;-41
2022/12/29 16:43:04;;;;;;;15.48;8.75;;;;;;;2.75;67.25;99605.17;1744692;82;21489;-41
2022/12/29 16:45:52;;;;;;;13.80;9.53;;;;;;;2.81;67.16;99602.61;1745637;81;21217;-41
2022/12/29 16:48:25;;;;;;;13.70;9.60;;;;;;;2.82;67.13;99598.05;1737612;82;21029;-41
2022/12/29 16:50:51;;;;;;;15.75;9.23;;;;;;;2.80;67.15;99597.03;1737642;82;20933;-41
2022/12/29 16:53:41;;;;;;;14.78;9.75;;;;;;;2.79;67.13;99601.34;1737494;82;20942;-41
2022/12/29 16:56:17;;;;;;;18.85;9.38;;;;;;;2.78;67.14;99600.55;1737971;82;21056;-41
2022/12/29 16:58:53;;;;;;;13.30;8.73;;;;;;;2.75;67.25;99599.83;1737597;82;21165;-41
2022/12/29 17:01:20;;;;;;;15.10;9.18;;;;;;;2.76;67.24;99604.63;1737143;82;21102;-41
2022/12/29 17:03:53;;;;;;;12.58;8.60;;;;;;;2.74;67.15;99602.79;1737472;82;21539;-41
2022/12/29 17:06:21;;;;;;;11.65;7.95;;;;;;;2.69;67.23;99600.23;1737755;82;21561;-41
2022/12/29 17:08:48;;;;;;;15.32;9.55;;;;;;;2.62;67.47;99596.06;1737764;82;21048;-41
2022/12/29 17:14:40;;;;;;;13.00;8.28;;;;;;;2.66;67.52;99592.81;1737560;82;20941;-41
2022/12/29 17:17:32;;;;;;;15.63;8.90;;;;;;;2.62;67.55;99593.94;1732323;82;21573;-41
2022/12/29 17:20:19;;;;;;;15.28;9.30;;;;;;;2.58;67.67;99590.28;1735285;82;20993;-41
2022/12/29 17:22:45;;;;;;;13.78;8.83;;;;;;;2.54;67.77;99584.75;1738002;82;20949;-41
2022/12/29 17:25:15;;;;;;;18.55;10.15;;;;;;;2.53;67.80;99582.36;1737894;82;21546;-41
2022/12/29 17:27:56;;;;;;;12.95;8.33;;;;;;;2.49;67.89;99584.85;1738011;82;21671;-41
2022/12/29 17:30:24;;;;;;;16.62;9.43;;;;;;;2.48;67.98;99586.48;1737620;82;21032;-41
2022/12/29 17:33:04;;;;;;;14.70;9.53;;;;;;;2.49;68.03;99580.84;1737779;82;21095;-41
2022/12/29 17:35:30;;;;;;;20.62;9.18;;;;;;;2.55;68.05;99578.85;1736427;82;21044;-41
2022/12/29 17:37:57;;;;;;;15.08;9.00;;;;;;;2.58;68.00;99575.56;1737539;82;21112;-41
2022/12/29 17:40:27;;;;;;;15.18;9.58;;;;;;;2.59;68.01;99573.14;1737436;82;20988;-41
2022/12/29 17:42:56;;;;;;;15.58;9.53;;;;;;;2.57;68.05;99571.30;1738026;82;21522;-41
2022/12/29 17:45:28;;;;;;;14.05;9.53;;;;;;;2.55;68.10;99576.17;1736620;82;21029;-41
2022/12/29 17:47:55;;;;;;;13.03;8.75;;;;;;;2.52;68.20;99576.22;1733732;82;21060;-41
2022/12/29 17:50:25;;;;;;;13.55;8.58;;;;;;;2.54;68.20;99567.89;1739920;81;21141;-41
2022/12/29 17:52:59;;;;;;;15.23;9.40;;;;;;;2.60;68.12;99577.41;1739876;82;21589;-41
2022/12/29 17:55:28;;;;;;;14.73;9.03;;;;;;;2.65;68.08;99574.61;1739811;82;21501;-41
2022/12/29 17:57:55;;;;;;;14.15;9.15;;;;;;;2.70;67.99;99575.84;1740099;82;21572;-41
2022/12/29 18:00:29;;;;;;;13.78;9.58;;;;;;;2.73;67.86;99569.88;1740076;82;20977;-41
2022/12/29 18:02:59;;;;;;;15.35;8.73;;;;;;;2.75;67.87;99571.72;1739977;82;21200;-41
2022/12/29 18:05:28;;;;;;;14.15;8.20;;;;;;;2.44;67.77;99518.06;1740270;82;26704;-41
2022/12/29 18:07:57;;;;;;;;;;;;;;;2.79;67.74;99572.69;1742669;82;21035;-41
2022/12/29 18:10:26;;;;;;;15.15;8.90;;;;;;;2.82;67.78;99574.75;1739985;82;20631;-41
2022/12/29 18:12:54;;;;;;;15.35;9.18;;;;;;;2.79;67.94;99574.02;1740113;82;21016;-41
2022/12/29 18:15:33;;;;;;;12.37;8.35;;;;;;;2.80;67.97;99574.28;1740148;82;21783;-41
2022/12/29 18:18:14;;;;;;;13.00;8.10;;;;;;;2.88;67.84;99571.41;1739618;82;21518;-41
2022/12/29 18:20:42;;;;;;;11.93;8.10;;;;;;;2.97;67.64;99569.59;1740162;82;21012;-41
2022/12/29 18:23:23;;;;;;;12.63;8.88;;;;;;;3.04;67.44;99569.42;1733605;82;21040;-41
2022/12/29 18:25:58;;;;;;;12.28;7.90;;;;;;;3.05;67.33;99566.97;1732760;82;21025;-41
2022/12/29 18:28:26;;;;;;;13.53;8.10;;;;;;;3.03;67.33;99569.17;1721831;82;21270;-41
2022/12/29 18:30:52;;;;;;;13.98;8.00;;;;;;;3.01;67.24;99567.34;1739996;82;21028;-41